Station: Coonawarra  

  Atmospheric Gas Attenuation - ITU Rec 676-11   ----------------- dB/100km -----------------
Date Time Temp RH % AH g/m3 Dew Point Wind Direction Speed kph Gust kph Barometer mB Rainfall Since 9am 24GHz 47GHz 76GHz 122GHz 134GHz 241GHz
06/05 18:40 10.3 77 7.38 6.5 20 24 1022.1 1.6 17.1 25.2 37.0 96.7 87.1 298.3
06/05 18:30 10.4 81 7.81 7.3 20 30 1022.1 1.6 18.0 25.9 38.7 101.3 92.7 318.1
06/05 18:20 10.8 78 7.71 7.1 30 39 1022 1.6 17.8 25.6 38.1 99.6 90.9 311.8
06/05 18:10 10.9 81 8.06 7.8 19 22 1021.8 1.6 18.6 26.2 39.4 103.3 95.5 327.8
06/05 18:00 11.1 82 8.26 8.1 20 35 1021.5 1.6 19.0 26.4 40.1 105.2 97.9 336.4
06/05 17:50 11.1 83 8.36 8.3 19 20 1021.3 1.6 19.2 26.6 40.6 106.3 99.3 341.1
06/05 17:40 11.1 81 8.16 8 20 24 1021.1 1.6 18.8 26.3 39.7 104.1 96.5 331.6
06/05 17:30 11.4 78 8.01 7.7 28 50 1020.9 1.6 18.4 25.9 38.9 102.0 94.1 323.2
06/05 17:20 11.7 78 8.16 8 24 28 1020.7 1.6 18.7 26.1 39.4 103.2 95.8 328.9
06/05 17:10 12.2 76 8.2 8.1 24 33 1020.5 1.6 18.8 26.0 39.3 103.0 95.7 328.6
06/05 17:00 12.5 76 8.36 8.4 22 33 1020.2 1.6 19.1 26.1 39.8 104.3 97.4 334.8
06/05 16:50 12.5 78 8.58 8.8 22 32 1020.2 1.6 19.6 26.5 40.7 106.7 100.4 345.2
06/05 16:40 12.7 78 8.68 9 24 28 1020.1 1.6 19.8 26.6 41.0 107.5 101.5 349.0
06/05 16:30 12.8 82 9.19 9.8 22 30 1020.1 1.6 20.9 27.4 43.1 113.0 108.3 372.8
06/05 16:20 12.9 85 9.58 10.4 22 26 1019.9 1.6 21.7 28.1 44.6 117.2 113.5 391.1
06/05 16:10 12.7 88 9.8 10.8 20 24 1019.9 1.6 22.2 28.5 45.7 120.0 116.9 402.9
06/05 16:00 12.8 89 9.97 11 22 35 1019.7 1.6 22.6 28.7 46.3 121.8 119.1 410.7
06/05 15:50 12.8 90 10.08 11.2 24 26 1019.6 1.6 22.8 28.9 46.8 123.1 120.7 416.1
06/05 15:40 12.6 91 10.07 11.2 24 32 1019.5 1.6 22.8 29.0 46.9 123.2 120.8 416.7
06/05 15:30 12.4 92 10.05 11.1 28 41 1019.4 1.6 22.8 29.0 46.9 123.3 120.8 416.7
06/05 15:20 12.4 94 10.27 11.5 30 52 1019.3 1.6 23.2 29.4 47.9 125.9 124.0 427.7
06/05 15:10 12.7 92 10.24 11.4 33 43 1019.1 1.4 23.2 29.2 47.5 125.0 123.0 424.5
06/05 15:00 13.2 93 10.68 12.1 30 43 1019 1.4 24.1 29.8 49.1 129.3 128.5 443.6
06/05 14:50 14 91 10.98 12.6 24 35 1018.8 1.2 24.7 30.1 49.9 131.4 131.4 454.0
06/05 14:40 14.2 87 10.62 12.1 35 41 1018.6 1.2 23.9 29.4 48.2 126.9 125.9 434.8
06/05 14:30 15.9 80 10.83 12.5 26 35 1018.2 1 24.2 29.1 48.1 126.5 126.1 435.4
06/05 14:20 15.4 84 11.04 12.7 24 30 1018.2 1 24.7 29.7 49.3 129.7 129.8 448.6
06/05 14:10 14.5 88 10.95 12.5 26 33 1018.3 1 24.6 29.8 49.5 130.2 130.1 449.4
06/05 14:00 14.7 83 10.45 11.8 28 46 1018.3 1 23.5 28.9 47.2 124.1 122.7 423.6
06/05 13:50 17.8 68 10.32 11.8 28 32 1018.1 0.8 23.0 27.7 44.8 117.9 116.1 400.9
06/05 13:40 17.3 66 9.72 10.9 26 32 1018.2 0.8 21.8 26.9 42.7 112.1 108.9 375.7
06/05 13:30 17.1 64 9.32 10.2 26 35 1018.2 0.8 21.0 26.3 41.2 108.2 104.0 358.3
06/05 13:20 18.1 66 10.2 11.7 20 26 1018.3 0.8 22.8 27.4 44.2 116.1 114.1 393.9
06/05 13:10 17.5 66 9.84 11.1 30 35 1018.5 0.8 22.0 27.0 43.1 113.2 110.2 380.3
06/05 13:00 17.6 67 10.05 11.4 24 37 1018.7 0.8 22.5 27.3 43.9 115.3 112.9 389.6
06/05 12:50 16.9 68 9.78 11 22 28 1018.9 0.8 21.9 27.1 43.2 113.4 110.3 380.6
06/05 12:40 16.4 68 9.49 10.5 26 33 1019 0.8 21.3 26.8 42.3 111.0 107.2 369.6
06/05 12:30 16.8 66 9.44 10.4 30 44 1019.1 0.8 21.2 26.6 41.9 110.0 106.0 365.4
06/05 12:20 16.3 71 9.85 11 30 39 1019.2 0.8 22.1 27.4 43.8 115.1 112.1 386.9
06/05 12:10 16.3 79 10.96 12.7 22 24 1019.3 0.8 24.5 29.3 48.4 127.4 127.3 439.9
06/05 12:00 16.1 81 11.1 12.8 22 33 1019.4 0.8 24.8 29.6 49.2 129.3 129.6 447.9
06/05 11:50 15.8 84 11.31 13.1 24 28 1019.6 0.8 25.3 30.1 50.3 132.3 133.1 460.0
06/05 11:40 15.3 91 11.88 13.8 17 20 1019.7 0.8 26.5 31.2 53.1 139.8 142.2 491.7
06/05 11:30 14.4 91 11.25 13 28 44 1020 0.8 25.2 30.5 50.9 134.0 134.8 465.6
06/05 11:20 15 88 11.28 13 22 30 1020 0.6 25.3 30.3 50.7 133.4 134.1 463.5
06/05 11:10 15.3 82 10.71 12.2 35 46 1020.1 0.6 24.0 29.2 48.0 126.3 125.6 433.6
06/05 11:00 15.8 82 11.04 12.7 22 32 1019.9 0.6 24.7 29.6 49.1 129.2 129.3 446.8
06/05 10:50 15.8 82 11.04 12.7 24 26 1020 0.6 24.7 29.6 49.1 129.2 129.3 446.9
06/05 09:10 13.7 95 11.25 12.9 19 22 1020.5 0 25.3 30.7 51.4 135.3 136.1 470.0
06/05 09:00 13.5 94 11 12.6 20 26 1020.6 0 24.7 30.3 50.4 132.7 132.8 458.6
06/05 08:50 13.6 95 11.18 12.8 22 28 1020.7 0 25.1 30.6 51.2 134.7 135.2 467.1
06/05 08:40 13.2 95 10.91 12.4 19 24 1020.7 0 24.6 30.3 50.2 132.2 132.0 455.8
06/05 08:30 12.9 96 10.82 12.3 19 26 1020.7 0 24.4 30.2 50.0 131.7 131.2 453.0
06/05 08:20 12.8 96 10.75 12.2 19 20 1020.8 0 24.2 30.2 49.8 131.0 130.4 450.1
06/05 08:10 12.7 97 10.8 12.2 17 20 1020.8 0 24.4 30.3 50.1 131.8 131.3 453.2
06/05 08:00 12.5 97 10.67 12 17 22 1020.7 0 24.1 30.1 49.6 130.6 129.7 447.8
06/05 07:50 12.4 97 10.6 11.9 17 20 1020.7 0 23.9 30.0 49.4 129.9 128.9 444.8
06/05 07:40 12.3 97 10.53 11.8 15 17 1020.7 0 23.8 29.9 49.1 129.2 128.0 441.8
06/05 07:30 12.3 97 10.53 11.8 15 20 1020.6 0 23.8 29.9 49.1 129.2 128.0 441.8
06/05 07:20 12.4 97 10.6 11.9 15 17 1020.6 0 23.9 30.0 49.4 129.9 128.9 444.8
06/05 07:10 12.5 97 10.67 12 15 19 1020.5 0 24.1 30.1 49.6 130.5 129.7 447.7
06/05 07:00 12.5 97 10.67 12 15 24 1020.6 0 24.1 30.1 49.6 130.6 129.7 447.7
06/05 06:50 12.4 97 10.6 11.9 13 17 1020.7 0 23.9 30.0 49.4 129.9 128.9 444.8
06/05 06:40 12.3 97 10.53 11.8 15 19 1020.7 0 23.8 29.9 49.1 129.2 128.0 441.8
06/05 06:30 12.2 97 10.47 11.7 17 20 1020.6 0 23.7 29.9 48.9 128.7 127.3 439.3
06/05 06:20 12.2 97 10.47 11.7 17 20 1020.6 0 23.7 29.9 48.9 128.7 127.3 439.3
06/05 06:10 12.1 97 10.4 11.6 19 20 1020.6 0 23.5 29.8 48.7 128.0 126.5 436.4
06/05 06:00 12 96 10.23 11.4 15 22 1020.6 0 23.2 29.5 48.0 126.2 124.2 428.3
06/05 05:50 12 96 10.23 11.4 15 19 1020.6 0 23.2 29.5 48.0 126.2 124.2 428.3
06/05 05:40 11.8 96 10.11 11.2 17 20 1020.6 0 22.9 29.4 47.6 125.1 122.8 423.4
06/05 05:30 11.9 96 10.17 11.3 17 24 1020.7 0 23.0 29.4 47.8 125.7 123.5 425.9
06/05 05:20 12 95 10.13 11.2 17 20 1020.8 0 23.0 29.3 47.6 125.1 122.8 423.4
06/05 05:10 12.1 95 10.19 11.3 19 20 1020.8 0 23.1 29.4 47.8 125.6 123.5 425.8
06/05 05:00 12.2 95 10.25 11.4 15 20 1020.8 0 23.2 29.5 48.0 126.1 124.2 428.3
06/05 04:50 12.2 95 10.25 11.4 13 15 1020.8 0 23.2 29.5 48.0 126.1 124.2 428.3
06/05 04:40 12.2 94 10.14 11.3 13 15 1020.8 0 23.0 29.3 47.5 124.9 122.6 422.8
06/05 04:30 12.2 94 10.14 11.3 15 20 1020.8 0 23.0 29.3 47.5 124.9 122.6 422.8
06/05 04:20 12.1 93 9.97 11 17 22 1020.9 0 22.6 29.0 46.8 123.1 120.3 414.8
06/05 04:10 12.1 93 9.97 11 15 17 1021 0 22.6 29.0 46.8 123.1 120.3 414.9
06/05 04:00 12 93 9.91 10.9 15 20 1020.9 0 22.5 29.0 46.6 122.5 119.6 412.4
06/05 03:50 12 92 9.81 10.7 13 17 1020.9 0 22.3 28.8 46.2 121.4 118.2 407.4
06/05 03:40 12 91 9.7 10.6 15 17 1021 0 22.0 28.6 45.7 120.1 116.6 402.0
06/05 03:30 12 91 9.7 10.6 13 19 1021 0 22.0 28.6 45.7 120.1 116.6 402.0
06/05 03:20 12.1 90 9.65 10.5 15 17 1021.1 0 21.9 28.5 45.4 119.4 115.8 399.0
06/05 03:10 12 90 9.59 10.4 11 13 1021.1 0 21.8 28.4 45.2 118.9 115.1 396.6
06/05 03:00 12 90 9.59 10.4 11 17 1021.2 0 21.8 28.4 45.3 118.9 115.1 396.6
06/05 02:50 12.1 89 9.55 10.3 13 13 1021.2 0 21.7 28.3 45.0 118.3 114.4 394.1
06/05 02:40 12.2 89 9.61 10.4 13 15 1021.4 0 21.8 28.4 45.2 118.8 115.1 396.6
06/05 02:30 12.1 90 9.65 10.5 13 17 1021.5 0 21.9 28.5 45.5 119.4 115.8 399.1
06/05 02:20 12 91 9.7 10.6 13 15 1021.6 0 22.0 28.6 45.7 120.2 116.7 402.2
06/05 02:10 12 91 9.7 10.6 11 13 1021.7 0 22.0 28.6 45.7 120.2 116.7 402.2
06/05 02:00 11.8 92 9.68 10.5 9 13 1021.8 0 22.0 28.7 45.8 120.3 116.7 402.3
06/05 01:50 11.9 92 9.74 10.6 11 11 1022 0 22.1 28.7 46.0 120.8 117.5 404.8
06/05 01:40 12.1 91 9.76 10.7 11 13 1022 0 22.2 28.7 46.0 120.8 117.4 404.7
06/05 01:30 12.2 92 9.93 10.9 9 13 1022.1 0 22.5 29.0 46.6 122.6 119.7 412.7
06/05 01:20 12.3 92 9.99 11 9 11 1022.1 0 22.6 29.0 46.8 123.1 120.4 415.2
06/05 01:10 12.3 92 9.99 11 11 13 1022.2 0 22.6 29.0 46.8 123.1 120.4 415.2
06/05 01:00 12.2 92 9.93 10.9 9 13 1022.3 0 22.5 29.0 46.7 122.6 119.7 412.8
06/05 00:50 12.2 92 9.93 10.9 11 13 1022.4 0 22.5 29.0 46.7 122.6 119.7 412.8
06/05 00:40 12.3 91 9.88 10.9 11 13 1022.4 0 22.4 28.9 46.4 121.9 118.9 409.8

Last Refresh: 06-May-2026 18:45:40

Bureau of Meteorology